Time;durP1;ratioP1;P1;durP2;ratioP2;P2;SDS_P1;SDS_P2;PMS_P1;PMS_P2;Temp;Humidity;BMP_temperature;BMP_pressure;BME280_temperature;BME280_humidity;BME280_pressure;Samples;Min_cycle;Max_cycle;Signal;HPM_P1;HPM_P2
2022/05/09 00:01:49;;;;;;;9.57;2.80;;;5.10;99.90;;;;;;5038777;28;20058;-81
2022/05/09 00:04:14;;;;;;;17.80;3.83;;;5.00;99.90;;;;;;5040075;28;20053;-81
2022/05/09 00:06:40;;;;;;;12.00;3.33;;;5.00;99.90;;;;;;5038901;28;20050;-82
2022/05/09 00:09:06;;;;;;;11.60;3.10;;;5.00;99.90;;;;;;5039269;28;20089;-81
2022/05/09 00:11:33;;;;;;;7.85;3.50;;;5.00;99.90;;;;;;5039720;28;20046;-81
2022/05/09 00:13:59;;;;;;;11.07;3.33;;;5.00;99.90;;;;;;5021967;28;20041;-81
2022/05/09 00:16:25;;;;;;;10.48;2.60;;;5.00;99.90;;;;;;5038681;28;20049;-81
2022/05/09 00:18:51;;;;;;;11.82;3.90;;;5.00;99.90;;;;;;5007763;28;20046;-81
2022/05/09 00:21:17;;;;;;;17.13;3.92;;;4.90;99.90;;;;;;5038783;28;20052;-81
2022/05/09 00:23:42;;;;;;;12.52;3.92;;;4.90;99.90;;;;;;5039905;28;20045;-81
2022/05/09 00:26:08;;;;;;;16.65;3.67;;;4.90;99.90;;;;;;5038823;28;20061;-81
2022/05/09 00:28:34;;;;;;;10.73;3.40;;;4.90;99.90;;;;;;5038744;28;20486;-81
2022/05/09 00:31:00;;;;;;;13.60;3.35;;;4.90;99.90;;;;;;5038204;28;20056;-81
2022/05/09 00:33:26;;;;;;;10.15;2.83;;;4.90;99.90;;;;;;5022523;28;20133;-81
2022/05/09 00:35:53;;;;;;;18.73;4.05;;;4.80;99.90;;;;;;5038106;28;20042;-81
2022/05/09 00:38:19;;;;;;;11.25;3.70;;;4.80;99.90;;;;;;5039158;28;20053;-81
2022/05/09 00:41:28;;;;;;;10.40;2.95;;;4.80;99.90;;;;;;5023116;28;20046;-81
2022/05/09 00:43:33;;;;;;;11.93;3.30;;;4.90;99.90;;;;;;5009450;28;20129;-81
2022/05/09 00:45:59;;;;;;;15.38;3.38;;;4.80;99.90;;;;;;5041521;28;20092;-81
2022/05/09 00:48:25;;;;;;;12.57;4.10;;;4.80;99.90;;;;;;5042422;28;20493;-81
2022/05/09 00:50:52;;;;;;;10.38;3.60;;;4.80;99.90;;;;;;5026292;28;20033;-81
2022/05/09 00:53:18;;;;;;;11.38;3.40;;;4.80;99.90;;;;;;5042757;28;20095;-81
2022/05/09 00:55:49;;;;;;;10.50;3.38;;;4.80;99.90;;;;;;5025644;28;20050;-81
2022/05/09 00:58:21;;;;;;;14.68;4.50;;;4.80;99.90;;;;;;5042677;28;20058;-82
2022/05/09 01:00:48;;;;;;;6.72;2.45;;;4.80;99.90;;;;;;5041420;28;20382;-81
2022/05/09 01:03:23;;;;;;;14.88;3.22;;;4.80;99.90;;;;;;5042135;28;20108;-81
2022/05/09 01:05:50;;;;;;;19.27;3.65;;;4.80;99.90;;;;;;5025039;28;20046;-81
2022/05/09 01:08:19;;;;;;;9.90;3.00;;;4.80;99.90;;;;;;5043248;28;20045;-82
2022/05/09 01:10:47;;;;;;;11.27;3.28;;;4.80;99.90;;;;;;5041188;28;20050;-81
2022/05/09 01:13:15;;;;;;;10.60;3.22;;;4.80;99.90;;;;;;5042753;28;20057;-81
2022/05/09 01:15:43;;;;;;;9.98;3.60;;;4.80;99.90;;;;;;5041853;28;20077;-81
2022/05/09 01:18:11;;;;;;;16.63;4.03;;;4.70;99.90;;;;;;5041846;28;20050;-81
2022/05/09 01:20:37;;;;;;;17.98;4.85;;;4.80;99.90;;;;;;5042489;28;20042;-81
2022/05/09 01:23:04;;;;;;;15.85;4.45;;;4.70;99.90;;;;;;5042728;28;20121;-81
2022/05/09 01:25:31;;;;;;;11.77;3.45;;;4.70;99.90;;;;;;5042029;28;20149;-81
2022/05/09 01:27:57;;;;;;;16.20;3.30;;;4.70;99.90;;;;;;5041997;28;20112;-81
2022/05/09 01:30:31;;;;;;;19.23;5.18;;;4.70;99.90;;;;;;5010487;28;20038;-81
2022/05/09 01:33:02;;;;;;;15.02;3.65;;;4.70;99.90;;;;;;5041574;28;20133;-81
2022/05/09 01:35:38;;;;;;;9.48;4.10;;;4.70;99.90;;;;;;5025446;28;20062;-81
2022/05/09 01:38:15;;;;;;;11.15;3.20;;;4.60;99.90;;;;;;5008211;28;20405;-81
2022/05/09 01:40:40;;;;;;;15.32;3.30;;;4.60;99.90;;;;;;4992555;28;20046;-81
2022/05/09 01:43:06;;;;;;;18.35;3.58;;;4.60;99.90;;;;;;5041523;28;20053;-81
2022/05/09 01:45:32;;;;;;;10.32;4.68;;;4.50;99.90;;;;;;5040187;28;20042;-81
2022/05/09 01:50:42;;;;;;;8.52;2.90;;;4.50;99.90;;;;;;5041910;28;20107;-81
2022/05/09 01:53:08;;;;;;;9.38;2.88;;;4.40;99.90;;;;;;5024049;28;20046;-81
2022/05/09 01:55:34;;;;;;;11.93;3.30;;;4.40;99.90;;;;;;5041948;28;20402;-80
2022/05/09 01:58:00;;;;;;;16.52;3.05;;;4.50;99.90;;;;;;5041474;28;20076;-81
2022/05/09 02:00:25;;;;;;;15.88;3.60;;;4.40;99.90;;;;;;5040510;28;20523;-81
2022/05/09 02:02:51;;;;;;;15.18;4.00;;;4.40;99.90;;;;;;5041465;28;20054;-81
2022/05/09 02:05:17;;;;;;;8.82;2.60;;;4.40;99.90;;;;;;5041372;28;20141;-81
2022/05/09 02:07:43;;;;;;;10.65;3.28;;;4.40;99.90;;;;;;5040992;28;20112;-81
2022/05/09 02:10:09;;;;;;;9.10;2.40;;;4.40;99.90;;;;;;5040770;28;20046;-81
2022/05/09 02:12:35;;;;;;;16.08;3.20;;;4.30;99.90;;;;;;5042168;28;20057;-81
2022/05/09 02:15:01;;;;;;;10.25;3.20;;;4.30;99.90;;;;;;5039785;28;20501;-82
2022/05/09 02:17:29;;;;;;;4.63;1.70;;;4.30;99.90;;;;;;5040828;28;20497;-81
2022/05/09 02:19:55;;;;;;;4.55;1.13;;;4.30;99.90;;;;;;5040597;28;20046;-81
2022/05/09 02:22:21;;;;;;;4.18;1.00;;;4.20;99.90;;;;;;5040947;28;20050;-81
2022/05/09 02:24:46;;;;;;;12.88;2.70;;;4.10;99.90;;;;;;5040704;28;20041;-81
2022/05/09 02:27:12;;;;;;;15.25;4.05;;;4.10;99.90;;;;;;5040615;28;20065;-81
2022/05/09 02:29:39;;;;;;;14.27;3.65;;;4.10;99.90;;;;;;5040396;28;20034;-81
2022/05/09 02:32:06;;;;;;;15.98;4.43;;;4.10;99.90;;;;;;5040023;28;20133;-81
2022/05/09 02:34:33;;;;;;;10.25;2.95;;;4.20;99.90;;;;;;5039920;28;20049;-81
2022/05/09 02:36:59;;;;;;;8.70;3.80;;;4.20;99.90;;;;;;5040563;28;20077;-81
2022/05/09 02:39:24;;;;;;;15.65;3.85;;;4.20;99.90;;;;;;5041069;28;20046;-81
2022/05/09 02:41:50;;;;;;;9.75;4.03;;;4.10;99.90;;;;;;5023226;28;20064;-81
2022/05/09 02:44:16;;;;;;;16.17;4.88;;;4.10;99.90;;;;;;5009735;28;20046;-81
2022/05/09 02:46:42;;;;;;;10.02;3.58;;;4.10;99.90;;;;;;5039811;28;20046;-81
2022/05/09 02:49:08;;;;;;;9.88;3.75;;;4.10;99.90;;;;;;5039898;28;20515;-81
2022/05/09 02:51:34;;;;;;;6.28;2.47;;;4.10;99.90;;;;;;5040599;28;20050;-81
2022/05/09 02:54:00;;;;;;;6.03;2.58;;;4.10;99.90;;;;;;5040354;28;20065;-81
2022/05/09 02:56:26;;;;;;;7.47;3.50;;;4.10;99.90;;;;;;5039996;28;20078;-81
2022/05/09 02:58:52;;;;;;;13.55;3.70;;;4.40;99.90;;;;;;5040085;28;20042;-81
2022/05/09 03:01:18;;;;;;;17.05;4.93;;;4.10;99.90;;;;;;5023616;28;20089;-81
2022/05/09 03:06:28;;;;;;;10.93;3.55;;;4.30;99.90;;;;;;5040963;28;20111;-81
2022/05/09 03:08:54;;;;;;;10.60;4.32;;;4.30;99.90;;;;;;5040645;28;20046;-81
2022/05/09 03:11:20;;;;;;;7.82;3.22;;;4.20;99.90;;;;;;5039963;28;20842;-81
2022/05/09 03:13:45;;;;;;;5.28;2.83;;;4.20;99.90;;;;;;5023743;28;20132;-81
2022/05/09 03:16:11;;;;;;;5.82;2.35;;;4.20;99.90;;;;;;5022460;28;20057;-81
2022/05/09 03:18:37;;;;;;;10.13;2.90;;;4.10;99.90;;;;;;5040269;28;20046;-81
2022/05/09 03:21:04;;;;;;;24.13;3.35;;;4.10;99.90;;;;;;5007028;28;20045;-81
2022/05/09 03:23:30;;;;;;;18.95;3.97;;;4.10;99.90;;;;;;5040430;28;20042;-81
2022/05/09 03:25:55;;;;;;;10.90;3.67;;;4.10;99.90;;;;;;5039876;28;20057;-82
2022/05/09 03:28:24;;;;;;;7.88;3.30;;;4.00;99.90;;;;;;5040744;28;20052;-81
2022/05/09 03:30:52;;;;;;;12.40;3.20;;;4.00;99.90;;;;;;5022226;28;20046;-81
2022/05/09 03:33:20;;;;;;;6.15;3.17;;;4.00;99.90;;;;;;5040333;28;20196;-81
2022/05/09 03:35:46;;;;;;;9.25;3.42;;;4.00;99.90;;;;;;5005952;28;20061;-81
2022/05/09 03:38:12;;;;;;;10.73;4.10;;;4.00;99.90;;;;;;5039476;28;20080;-81
2022/05/09 03:40:39;;;;;;;6.00;3.47;;;4.00;99.90;;;;;;5006062;28;20100;-81
2022/05/09 03:43:06;;;;;;;7.93;3.70;;;4.00;99.90;;;;;;5023184;28;20060;-81
2022/05/09 03:45:32;;;;;;;8.10;3.13;;;4.10;99.90;;;;;;5038605;28;20080;-81
2022/05/09 03:47:59;;;;;;;11.05;4.10;;;4.10;99.90;;;;;;5039270;28;20042;-81
2022/05/09 03:50:28;;;;;;;6.90;3.30;;;4.10;99.90;;;;;;5039664;28;20050;-81
2022/05/09 03:52:54;;;;;;;4.63;2.80;;;4.00;99.90;;;;;;5038280;28;20049;-81
2022/05/09 03:55:19;;;;;;;5.63;2.78;;;4.00;99.90;;;;;;5040022;28;20042;-81
2022/05/09 03:57:49;;;;;;;10.20;3.17;;;4.00;99.90;;;;;;5039215;28;20188;-82
2022/05/09 04:00:16;;;;;;;64.47;3.08;;;4.00;99.90;;;;;;5021727;28;20095;-82
2022/05/09 04:02:43;;;;;;;13.98;2.53;;;4.00;99.90;;;;;;5039870;28;20046;-82
2022/05/09 04:05:15;;;;;;;90.80;4.47;;;3.90;99.90;;;;;;5039323;28;20064;-82
2022/05/09 04:07:43;;;;;;;11.65;2.85;;;3.80;99.90;;;;;;5039649;28;20120;-82
2022/05/09 04:10:09;;;;;;;56.47;3.35;;;3.70;99.90;;;;;;5022845;28;20127;-81
2022/05/09 04:12:35;;;;;;;10.48;2.10;;;3.70;99.90;;;;;;5038907;28;20054;-81
2022/05/09 04:17:45;;;;;;;9.63;2.88;;;3.70;99.90;;;;;;5043265;28;20509;-81
2022/05/09 04:20:11;;;;;;;57.22;3.00;;;3.70;99.90;;;;;;5009383;28;20093;-81
2022/05/09 04:22:37;;;;;;;11.60;1.80;;;3.70;99.90;;;;;;5042966;28;20084;-81
2022/05/09 04:25:04;;;;;;;7.13;2.00;;;3.70;99.90;;;;;;5026266;28;20081;-81
2022/05/09 04:27:29;;;;;;;13.85;1.77;;;3.70;99.90;;;;;;5050821;28;20140;-82
2022/05/09 04:29:56;;;;;;;91.47;3.45;;;3.70;99.90;;;;;;5012519;28;20524;-82
2022/05/09 04:32:22;;;;;;;78.43;3.55;;;3.80;99.90;;;;;;5012498;28;20054;-82
2022/05/09 04:34:47;;;;;;;5.18;1.63;;;3.80;99.90;;;;;;5027946;28;20501;-82
2022/05/09 04:37:13;;;;;;;13.20;1.30;;;3.80;99.90;;;;;;5013451;28;20053;-82
2022/05/09 04:39:39;;;;;;;3.03;1.00;;;3.90;99.90;;;;;;5029532;28;20061;-82
2022/05/09 04:42:05;;;;;;;3.92;1.50;;;3.90;99.90;;;;;;5030036;28;20053;-81
2022/05/09 04:44:30;;;;;;;2.90;1.10;;;3.90;99.90;;;;;;5029221;28;20037;-81
2022/05/09 04:46:56;;;;;;;5.40;2.40;;;4.00;99.90;;;;;;5028386;28;20041;-81
2022/05/09 04:49:22;;;;;;;11.90;4.00;;;4.00;99.90;;;;;;5009889;28;20096;-81
2022/05/09 04:51:47;;;;;;;11.27;4.38;;;4.10;99.90;;;;;;5042319;28;20053;-82
2022/05/09 04:54:16;;;;;;;11.18;4.18;;;4.20;99.90;;;;;;4993549;28;20551;-81
2022/05/09 04:56:41;;;;;;;15.80;4.50;;;4.30;99.90;;;;;;5025613;28;20042;-80
2022/05/09 04:59:08;;;;;;;38.75;5.28;;;4.50;99.90;;;;;;5042337;28;20045;-81
2022/05/09 05:01:33;;;;;;;18.42;5.53;;;4.60;99.90;;;;;;5041204;28;20102;-81
2022/05/09 05:04:00;;;;;;;18.20;4.57;;;4.70;99.90;;;;;;5042344;28;20046;-82
2022/05/09 05:06:25;;;;;;;8.73;5.00;;;4.70;99.90;;;;;;5042824;28;20128;-82
2022/05/09 05:08:51;;;;;;;9.40;5.18;;;4.80;99.90;;;;;;5010108;28;20200;-82
2022/05/09 05:11:17;;;;;;;11.82;5.60;;;4.90;99.90;;;;;;5042785;28;20481;-82
2022/05/09 05:13:42;;;;;;;11.90;4.63;;;5.00;99.90;;;;;;5010964;28;20575;-82
2022/05/09 05:16:08;;;;;;;13.55;5.10;;;5.10;99.90;;;;;;5040001;28;20042;-81
2022/05/09 05:18:34;;;;;;;17.27;6.70;;;5.20;99.90;;;;;;5042553;28;20041;-82
2022/05/09 05:21:08;;;;;;;17.58;6.75;;;5.40;99.90;;;;;;5042092;28;20056;-82
2022/05/09 05:23:33;;;;;;;22.25;8.23;;;5.90;99.90;;;;;;5008455;28;20413;-82
2022/05/09 05:26:00;;;;;;;29.77;8.02;;;5.70;99.90;;;;;;5009330;28;20046;-82
2022/05/09 05:28:26;;;;;;;19.75;8.23;;;5.80;99.90;;;;;;5025356;28;20050;-82
2022/05/09 05:30:53;;;;;;;27.67;8.30;;;6.10;99.90;;;;;;5039924;28;20052;-82
2022/05/09 05:33:20;;;;;;;25.58;9.75;;;6.30;99.90;;;;;;5041766;28;20065;-82
2022/05/09 05:35:46;;;;;;;27.23;8.85;;;6.40;99.90;;;;;;5041352;28;20042;-82
2022/05/09 05:38:11;;;;;;;28.90;9.18;;;6.70;99.90;;;;;;5041117;28;20042;-82
2022/05/09 05:40:37;;;;;;;30.38;8.40;;;6.80;99.90;;;;;;5010215;28;20046;-82
2022/05/09 05:43:02;;;;;;;35.28;8.77;;;6.90;99.90;;;;;;5041589;28;20204;-82
2022/05/09 05:45:28;;;;;;;22.42;7.90;;;7.00;99.90;;;;;;5040016;28;20041;-82
2022/05/09 05:47:54;;;;;;;25.27;7.60;;;7.20;99.90;;;;;;5041375;28;20097;-82
2022/05/09 05:50:23;;;;;;;31.08;8.18;;;7.50;99.90;;;;;;5041551;28;20107;-82
2022/05/09 05:52:49;;;;;;;20.33;7.25;;;7.50;99.90;;;;;;5041243;28;20042;-82
2022/05/09 05:55:19;;;;;;;22.15;7.05;;;7.60;99.90;;;;;;5024974;28;20049;-82
2022/05/09 05:57:45;;;;;;;27.45;7.75;;;7.70;99.90;;;;;;5008669;28;20473;-82
2022/05/09 06:00:20;;;;;;;27.50;7.93;;;7.90;99.90;;;;;;5040655;28;20048;-82
2022/05/09 06:02:46;;;;;;;32.60;7.57;;;8.10;99.90;;;;;;5009743;28;20061;-83
2022/05/09 06:05:14;;;;;;;28.08;7.18;;;8.50;99.90;;;;;;5040578;28;20145;-82
2022/05/09 06:07:40;;;;;;;19.75;6.70;;;8.30;99.90;;;;;;5008687;28;20038;-83
2022/05/09 06:10:08;;;;;;;21.52;7.22;;;8.50;99.90;;;;;;5040622;28;20045;-82
2022/05/09 06:12:34;;;;;;;17.90;6.65;;;8.50;99.90;;;;;;5007574;28;20448;-82
2022/05/09 06:17:44;;;;;;;23.00;6.95;;;9.00;99.90;;;;;;5041385;28;20588;-82
2022/05/09 06:20:12;;;;;;;22.92;7.05;;;8.90;99.90;;;;;;5039964;28;20125;-82
2022/05/09 06:22:38;;;;;;;25.77;6.60;;;9.10;99.90;;;;;;5041722;28;20050;-83
2022/05/09 06:25:06;;;;;;;24.13;6.97;;;9.20;99.90;;;;;;5040404;28;20049;-82
2022/05/09 06:27:32;;;;;;;23.35;6.68;;;9.30;99.90;;;;;;5040263;28;20104;-83
2022/05/09 06:30:01;;;;;;;19.77;7.70;;;9.50;99.90;;;;;;5023236;28;20037;-82
2022/05/09 06:32:27;;;;;;;27.40;8.18;;;9.60;99.90;;;;;;5007381;28;20110;-83
2022/05/09 06:34:53;;;;;;;28.95;6.53;;;9.80;99.90;;;;;;5039055;28;20049;-82
2022/05/09 06:37:19;;;;;;;28.48;7.60;;;9.90;99.90;;;;;;5009622;28;20046;-83
2022/05/09 06:39:45;;;;;;;26.48;7.45;;;10.20;99.90;;;;;;5040814;28;20049;-82
2022/05/09 06:42:11;;;;;;;21.55;6.13;;;10.30;99.90;;;;;;5008491;28;20050;-83
2022/05/09 06:44:37;;;;;;;25.45;7.20;;;10.60;99.90;;;;;;5023723;28;20050;-83
2022/05/09 06:47:04;;;;;;;20.73;5.75;;;10.50;99.90;;;;;;5038768;28;20065;-83
2022/05/09 06:49:30;;;;;;;20.70;5.93;;;10.70;99.90;;;;;;5009807;28;20057;-83
2022/05/09 06:51:56;;;;;;;31.75;6.47;;;11.00;99.90;;;;;;5040838;28;20523;-82
2022/05/09 06:54:22;;;;;;;19.95;6.20;;;10.90;99.90;;;;;;5039583;28;20050;-82
2022/05/09 06:56:48;;;;;;;25.58;6.30;;;11.10;99.90;;;;;;5040596;28;20131;-83
2022/05/09 06:59:15;;;;;;;24.67;6.22;;;11.20;99.90;;;;;;5018157;28;20041;-83
2022/05/09 07:01:42;;;;;;;25.33;6.85;;;11.80;99.90;;;;;;5024393;28;20056;-83
2022/05/09 07:04:10;;;;;;;27.77;6.72;;;11.40;99.90;;;;;;5020426;28;20144;-84
2022/05/09 07:06:36;;;;;;;23.30;6.18;;;11.70;99.90;;;;;;5057461;28;20060;-80
2022/05/09 07:09:03;;;;;;;21.08;6.60;;;11.90;99.90;;;;;;5024292;28;20049;-81
2022/05/09 07:11:28;;;;;;;19.05;5.60;;;11.80;99.90;;;;;;5029760;28;20045;-80
2022/05/09 07:13:54;;;;;;;24.92;6.43;;;12.00;99.90;;;;;;5029724;28;20415;-80
2022/05/09 07:16:21;;;;;;;24.08;5.57;;;12.00;99.90;;;;;;5034296;28;20095;-80
2022/05/09 07:18:47;;;;;;;26.92;6.10;;;12.20;99.90;;;;;;5031052;28;20041;-79
2022/05/09 07:21:13;;;;;;;21.27;5.53;;;12.40;99.90;;;;;;5029660;28;20045;-79
2022/05/09 07:23:39;;;;;;;19.80;5.88;;;12.50;99.90;;;;;;5025470;28;20053;-78
2022/05/09 07:26:04;;;;;;;21.27;4.70;;;12.80;99.90;;;;;;5058785;28;20466;-78
2022/05/09 07:28:30;;;;;;;19.15;5.13;;;12.70;99.90;;;;;;5025623;28;20049;-79
2022/05/09 07:30:58;;;;;;;22.02;5.65;;;12.80;99.90;;;;;;5008427;28;20041;-79
2022/05/09 07:33:24;;;;;;;23.40;5.50;;;12.90;99.90;;;;;;5025887;28;20061;-78
2022/05/09 07:35:50;;;;;;;18.35;4.53;;;13.00;99.90;;;;;;5025349;28;20054;-79
2022/05/09 07:38:16;;;;;;;19.52;4.93;;;13.10;99.90;;;;;;5011433;28;20041;-79
2022/05/09 07:40:44;;;;;;;17.17;4.63;;;13.20;99.90;;;;;;5025719;28;20394;-81
2022/05/09 07:43:17;;;;;;;19.10;4.85;;;13.30;99.90;;;;;;5026530;28;20049;-81
2022/05/09 07:45:43;;;;;;;23.17;5.07;;;13.50;99.90;;;;;;5042029;28;20034;-81
2022/05/09 07:48:10;;;;;;;22.05;5.40;;;13.40;99.90;;;;;;5025802;28;20139;-81
2022/05/09 07:50:37;;;;;;;20.45;5.10;;;13.50;99.90;;;;;;5024839;28;20111;-81
2022/05/09 07:53:11;;;;;;;20.58;5.57;;;13.70;99.90;;;;;;5026178;28;20060;-81
2022/05/09 07:55:38;;;;;;;17.60;5.22;;;13.80;99.90;;;;;;5024063;28;20049;-82
2022/05/09 07:58:04;;;;;;;16.60;4.45;;;13.90;99.90;;;;;;5025710;28;20120;-82
2022/05/09 08:00:30;;;;;;;18.33;5.13;;;14.00;99.90;;;;;;5021942;28;20541;-83
2022/05/09 08:02:56;;;;;;;19.23;4.63;;;14.10;99.90;;;;;;5002386;28;20056;-87
2022/05/09 08:05:23;;;;;;;19.20;4.57;;;14.20;99.90;;;;;;5023505;28;20037;-82
2022/05/09 08:07:49;;;;;;;17.92;4.47;;;14.20;99.90;;;;;;5025215;28;20049;-82
2022/05/09 08:10:16;;;;;;;14.73;4.55;;;14.30;99.90;;;;;;5025472;28;20045;-82
2022/05/09 08:12:42;;;;;;;16.50;4.95;;;14.50;99.90;;;;;;5025513;28;20053;-83
2022/05/09 08:15:10;;;;;;;21.55;5.03;;;14.50;99.90;;;;;;5024860;28;20513;-84
2022/05/09 08:17:36;;;;;;;15.18;4.32;;;14.70;99.90;;;;;;5008722;28;20061;-87
2022/05/09 08:20:02;;;;;;;18.27;4.65;;;14.80;99.90;;;;;;5024601;28;20045;-81
2022/05/09 08:22:31;;;;;;;15.65;4.80;;;14.80;99.90;;;;;;5025781;28;20060;-82
2022/05/09 08:24:59;;;;;;;20.60;4.35;;;14.90;99.90;;;;;;5024708;28;20083;-81
2022/05/09 08:27:25;;;;;;;22.45;4.80;;;15.00;99.90;;;;;;5025382;28;20053;-81
2022/05/09 08:29:54;;;;;;;18.75;4.38;;;15.20;99.90;;;;;;5008482;28;20128;-81
2022/05/09 08:32:20;;;;;;;15.63;4.50;;;15.20;99.90;;;;;;5027281;28;20049;-82
2022/05/09 08:34:46;;;;;;;11.88;4.00;;;15.30;99.90;;;;;;5026207;28;20053;-81
2022/05/09 08:37:12;;;;;;;16.25;4.47;;;15.50;99.90;;;;;;5025999;28;20136;-83
2022/05/09 08:39:37;;;;;;;20.55;4.28;;;15.60;99.90;;;;;;5024727;28;20053;-82
2022/05/09 08:42:06;;;;;;;16.73;3.70;;;15.70;99.90;;;;;;5027024;28;20064;-82
2022/05/09 08:44:52;;;;;;;18.08;4.32;;;15.80;99.90;;;;;;5022824;28;20055;-82
2022/05/09 08:47:49;;;;;;;17.50;4.18;;;15.80;99.90;;;;;;5024518;28;20053;-82
2022/05/09 08:50:35;;;;;;;19.77;3.63;;;15.90;99.90;;;;;;5025736;28;20046;-82
2022/05/09 08:53:08;;;;;;;13.55;3.40;;;16.10;99.90;;;;;;5058570;28;20493;-82
2022/05/09 08:55:38;;;;;;;13.37;3.30;;;16.20;99.90;;;;;;5025416;28;20089;-82
2022/05/09 08:58:11;;;;;;;10.93;3.35;;;16.20;99.90;;;;;;5025189;28;20045;-82
2022/05/09 09:00:38;;;;;;;15.02;3.25;;;16.40;99.90;;;;;;5058335;28;20197;-82
2022/05/09 09:03:13;;;;;;;12.95;3.10;;;16.50;99.90;;;;;;5026788;28;20183;-82
2022/05/09 09:05:44;;;;;;;16.27;3.20;;;16.60;99.90;;;;;;5012360;28;20050;-81
2022/05/09 09:08:29;;;;;;;13.88;2.70;;;16.60;99.90;;;;;;5008537;28;20054;-82
2022/05/09 09:10:59;;;;;;;12.70;3.00;;;16.80;99.90;;;;;;5042276;28;20625;-81
2022/05/09 09:13:28;;;;;;;13.00;2.63;;;16.80;99.90;;;;;;5042240;28;20095;-82
2022/05/09 09:16:20;;;;;;;10.45;3.20;;;16.90;99.90;;;;;;5023815;28;20042;-82
2022/05/09 09:19:05;;;;;;;12.90;3.03;;;17.00;99.90;;;;;;5008611;28;20054;-81
2022/05/09 09:21:47;;;;;;;16.70;3.33;;;17.10;99.90;;;;;;5042766;28;20052;-82
2022/05/09 09:24:25;;;;;;;15.30;3.88;;;17.20;99.90;;;;;;5022273;28;20507;-81
2022/05/09 09:27:02;;;;;;;16.60;3.25;;;17.20;99.90;;;;;;5027204;28;20061;-86
2022/05/09 09:29:39;;;;;;;14.70;3.45;;;17.20;99.90;;;;;;5017081;28;20046;-85
2022/05/09 09:32:08;;;;;;;14.32;3.25;;;17.30;99.90;;;;;;5032174;28;20064;-84
2022/05/09 09:34:46;;;;;;;16.40;3.15;;;17.40;99.90;;;;;;5027368;28;20072;-81
2022/05/09 09:37:15;;;;;;;17.98;3.28;;;17.40;99.90;;;;;;5020218;28;20092;-81
2022/05/09 09:39:41;;;;;;;16.23;2.95;;;17.60;99.90;;;;;;5020025;28;20393;-79
2022/05/09 09:42:07;;;;;;;14.45;2.78;;;17.70;99.90;;;;;;5026513;28;20049;-80
2022/05/09 09:44:38;;;;;;;9.32;2.50;;;17.80;99.90;;;;;;5024172;28;20056;-81
2022/05/09 09:47:18;;;;;;;15.65;2.55;;;17.90;97.00;;;;;;5024260;28;20131;-80
2022/05/09 09:49:46;;;;;;;10.75;2.20;;;17.90;97.60;;;;;;5028333;28;20049;-80
2022/05/09 09:52:21;;;;;;;13.70;2.65;;;18.00;95.90;;;;;;5028381;28;20092;-80
2022/05/09 09:54:52;;;;;;;12.15;2.80;;;18.10;98.10;;;;;;5018356;28;20056;-80
2022/05/09 09:57:21;;;;;;;13.77;2.95;;;18.30;98.80;;;;;;5027114;28;20046;-80
2022/05/09 09:59:47;;;;;;;12.88;2.90;;;18.30;95.60;;;;;;5026868;28;20264;-80
2022/05/09 10:02:22;;;;;;;12.57;2.47;;;18.40;93.30;;;;;;5027087;28;20061;-81
2022/05/09 10:04:48;;;;;;;16.10;2.97;;;18.50;92.40;;;;;;5058836;28;20207;-82
2022/05/09 10:07:30;;;;;;;11.80;3.00;;;18.60;91.50;;;;;;5029561;28;20053;-81
2022/05/09 10:10:13;;;;;;;18.88;3.03;;;18.70;92.70;;;;;;5027731;28;20060;-82
2022/05/09 10:12:44;;;;;;;14.88;3.42;;;18.80;90.40;;;;;;5026967;28;20049;-82
2022/05/09 10:15:24;;;;;;;14.52;3.17;;;18.80;89.10;;;;;;5027059;28;20136;-82
2022/05/09 10:17:50;;;;;;;18.20;3.20;;;18.80;84.10;;;;;;5026843;28;20060;-81
2022/05/09 10:20:40;;;;;;;16.35;3.58;;;18.70;88.40;;;;;;5027040;28;20051;-82
2022/05/09 10:26:24;;;;;;;12.63;2.63;;;19.00;90.60;;;;;;5026373;28;20071;-82
2022/05/09 10:28:55;;;;;;;12.02;2.55;;;19.00;91.00;;;;;;5040724;28;20112;-82
2022/05/09 10:31:27;;;;;;;14.93;2.95;;;19.10;82.50;;;;;;5008389;28;20049;-82
2022/05/09 10:34:03;;;;;;;12.40;2.75;;;19.20;85.70;;;;;;5006694;28;20493;-82
2022/05/09 10:36:39;;;;;;;13.05;2.53;;;19.30;83.00;;;;;;5007706;28;20148;-82
2022/05/09 10:39:20;;;;;;;9.80;2.47;;;19.40;80.30;;;;;;5007796;28;20057;-81
2022/05/09 10:41:52;;;;;;;10.82;2.63;;;19.50;76.50;;;;;;5007143;28;20089;-81
2022/05/09 10:44:41;;;;;;;12.13;3.35;;;19.50;76.20;;;;;;5007201;28;20092;-81
2022/05/09 10:47:16;;;;;;;8.45;2.70;;;19.60;72.90;;;;;;5006096;28;20049;-82
2022/05/09 10:49:50;;;;;;;9.70;2.38;;;19.60;74.90;;;;;;5007009;28;20057;-82
2022/05/09 10:52:41;;;;;;;9.93;2.35;;;19.60;71.80;;;;;;5040709;28;20061;-82
2022/05/09 10:55:18;;;;;;;16.38;2.75;;;19.70;78.70;;;;;;5006498;28;20450;-81
2022/05/09 10:58:07;;;;;;;10.35;2.45;;;19.80;78.20;;;;;;5007751;28;20062;-82
2022/05/09 11:00:37;;;;;;;10.98;2.90;;;19.80;71.90;;;;;;5005621;28;20042;-81
2022/05/09 11:03:17;;;;;;;9.00;2.38;;;19.80;73.90;;;;;;5007253;28;20054;-82
2022/05/09 11:05:52;;;;;;;11.50;2.88;;;19.90;74.90;;;;;;5023542;28;20066;-82
2022/05/09 11:08:28;;;;;;;11.00;2.58;;;19.90;72.20;;;;;;5039705;28;20045;-82
2022/05/09 11:11:01;;;;;;;10.45;2.40;;;19.90;72.60;;;;;;5039564;28;20092;-82
2022/05/09 11:13:42;;;;;;;9.55;2.22;;;19.90;75.70;;;;;;5040714;28;20508;-81
2022/05/09 11:16:26;;;;;;;9.05;1.85;;;20.00;76.20;;;;;;5038437;28;20112;-81
2022/05/09 11:19:14;;;;;;;7.03;1.92;;;20.10;77.40;;;;;;5039607;28;20049;-82
2022/05/09 11:22:03;;;;;;;10.07;2.42;;;20.20;78.10;;;;;;5005776;28;20899;-82
2022/05/09 11:24:51;;;;;;;9.55;2.35;;;20.20;76.00;;;;;;5039188;28;20053;-81
2022/05/09 11:27:37;;;;;;;10.00;2.03;;;20.30;78.80;;;;;;5006880;28;20050;-81
2022/05/09 11:30:16;;;;;;;10.15;2.40;;;20.20;78.30;;;;;;5022075;28;20053;-81
2022/05/09 11:32:43;;;;;;;7.88;1.75;;;20.30;84.40;;;;;;5039780;28;20045;-81
2022/05/09 11:35:35;;;;;;;10.23;1.95;;;20.40;81.30;;;;;;5039125;28;20054;-82
2022/05/09 11:38:11;;;;;;;9.97;2.40;;;20.50;74.40;;;;;;5039537;28;20084;-81
2022/05/09 11:40:45;;;;;;;13.10;2.60;;;20.60;71.00;;;;;;5040751;28;20053;-81
2022/05/09 11:43:49;;;;;;;12.15;2.53;;;20.60;72.00;;;;;;5039453;28;20045;-81
2022/05/09 11:46:42;;;;;;;9.15;2.30;;;20.70;71.50;;;;;;5039355;28;20137;-82
2022/05/09 11:49:27;;;;;;;10.80;2.30;;;20.80;75.00;;;;;;5038879;28;20050;-82
2022/05/09 11:51:59;;;;;;;11.13;2.10;;;20.70;75.30;;;;;;5038647;28;20053;-81
2022/05/09 11:54:32;;;;;;;14.50;2.00;;;20.70;74.20;;;;;;5040110;28;20407;-81
2022/05/09 11:57:02;;;;;;;;;;;20.80;77.40;;;;;;5039129;28;20049;-81
2022/05/09 11:59:31;;;;;;;11.20;2.22;;;20.80;77.30;;;;;;5007739;28;19925;-82
2022/05/09 12:02:04;;;;;;;8.10;1.83;;;20.90;76.10;;;;;;5039139;28;20452;-82
2022/05/09 12:04:41;;;;;;;9.80;2.00;;;20.90;71.50;;;;;;5007253;28;20046;-81
2022/05/09 12:07:23;;;;;;;13.55;2.30;;;21.00;71.60;;;;;;5007373;28;20132;-81
2022/05/09 12:10:01;;;;;;;7.82;2.42;;;21.20;72.50;;;;;;5038663;28;20042;-82
2022/05/09 12:12:37;;;;;;;9.90;1.77;;;21.20;69.70;;;;;;5038820;28;20107;-81
2022/05/09 12:15:05;;;;;;;7.82;1.67;;;21.20;71.40;;;;;;5038727;28;20050;-81
2022/05/09 12:17:34;;;;;;;14.95;2.85;;;21.10;70.80;;;;;;5038550;28;20053;-81
2022/05/09 12:20:01;;;;;;;11.38;2.42;;;21.20;72.10;;;;;;5038710;28;20050;-81
2022/05/09 12:22:37;;;;;;;10.52;2.35;;;21.20;70.90;;;;;;5039782;28;20081;-81
2022/05/09 12:25:06;;;;;;;7.20;2.33;;;21.20;69.10;;;;;;5039273;28;20046;-81
2022/05/09 12:27:59;;;;;;;8.20;1.92;;;21.20;71.50;;;;;;5039065;28;20050;-81
2022/05/09 12:30:47;;;;;;;12.98;2.00;;;21.30;68.80;;;;;;5038810;28;20065;-81
2022/05/09 12:33:36;;;;;;;6.55;1.60;;;21.30;68.40;;;;;;5038747;28;20398;-81
2022/05/09 12:36:11;;;;;;;8.90;1.90;;;21.30;68.90;;;;;;5039318;28;20069;-81
2022/05/09 12:38:42;;;;;;;10.38;1.95;;;21.40;68.60;;;;;;5010628;28;20379;-81
2022/05/09 12:41:12;;;;;;;7.05;1.70;;;21.50;68.20;;;;;;5042893;28;20053;-80
2022/05/09 12:43:42;;;;;;;11.23;2.08;;;21.60;72.50;;;;;;5011251;28;20042;-81
2022/05/09 12:46:21;;;;;;;9.38;1.75;;;21.50;70.00;;;;;;5009443;28;20041;-80
2022/05/09 12:48:48;;;;;;;11.52;2.40;;;21.60;66.80;;;;;;5042549;28;20499;-81
2022/05/09 12:51:15;;;;;;;8.30;1.92;;;21.50;66.80;;;;;;5043080;28;20111;-81
2022/05/09 12:53:41;;;;;;;8.25;2.17;;;21.40;67.40;;;;;;5042660;28;20061;-81
2022/05/09 12:56:14;;;;;;;9.27;1.98;;;21.50;68.60;;;;;;5025828;28;20054;-81
2022/05/09 12:58:44;;;;;;;12.90;1.60;;;21.50;69.90;;;;;;5043021;28;20042;-81
2022/05/09 13:01:21;;;;;;;10.90;2.05;;;21.50;69.80;;;;;;5040643;28;20552;-81
2022/05/09 13:03:52;;;;;;;11.18;1.80;;;21.60;70.80;;;;;;5042514;28;20050;-82
2022/05/09 13:06:21;;;;;;;16.92;1.92;;;21.60;69.70;;;;;;5026141;28;20042;-81
2022/05/09 13:08:48;;;;;;;6.65;1.50;;;21.70;69.50;;;;;;5009787;28;20038;-81
2022/05/09 13:11:19;;;;;;;8.23;1.92;;;21.60;69.90;;;;;;5009259;28;20056;-81
2022/05/09 13:13:58;;;;;;;10.43;1.88;;;21.60;69.30;;;;;;5042101;28;20088;-81